sensor_id;sensor_type;location;lat;lon;timestamp;pressure;altitude;pressure_sealevel;temperature;humidity
6435;BME280;3250;42.694;23.278;2023-03-18T00:01:33;95243.19;;;2.00;83.25
6435;BME280;3250;42.694;23.278;2023-03-18T00:03:59;95234.91;;;1.96;82.56
6435;BME280;3250;42.694;23.278;2023-03-18T00:06:25;95242.97;;;1.93;83.12
6435;BME280;3250;42.694;23.278;2023-03-18T00:08:51;95231.09;;;1.90;83.12
6435;BME280;3250;42.694;23.278;2023-03-18T00:11:18;95234.38;;;1.93;83.48
6435;BME280;3250;42.694;23.278;2023-03-18T00:13:46;95236.00;;;1.94;83.65
6435;BME280;3250;42.694;23.278;2023-03-18T00:16:12;95228.38;;;1.92;83.63
6435;BME280;3250;42.694;23.278;2023-03-18T00:18:38;95235.50;;;1.90;83.58
6435;BME280;3250;42.694;23.278;2023-03-18T00:21:04;95227.34;;;1.85;83.76
6435;BME280;3250;42.694;23.278;2023-03-18T00:23:31;95225.69;;;1.84;84.04
6435;BME280;3250;42.694;23.278;2023-03-18T00:25:58;95209.44;;;1.82;83.31
6435;BME280;3250;42.694;23.278;2023-03-18T00:28:25;95218.88;;;1.83;83.24
6435;BME280;3250;42.694;23.278;2023-03-18T00:30:52;95214.00;;;1.80;83.66
6435;BME280;3250;42.694;23.278;2023-03-18T00:33:18;95205.25;;;1.81;83.41
6435;BME280;3250;42.694;23.278;2023-03-18T00:35:45;95211.09;;;1.83;84.04
6435;BME280;3250;42.694;23.278;2023-03-18T00:38:12;95199.31;;;1.71;83.69
6435;BME280;3250;42.694;23.278;2023-03-18T00:40:46;95202.47;;;1.82;83.15
6435;BME280;3250;42.694;23.278;2023-03-18T00:43:21;95203.97;;;1.85;83.30
6435;BME280;3250;42.694;23.278;2023-03-18T00:45:49;95192.91;;;1.83;83.51
6435;BME280;3250;42.694;23.278;2023-03-18T00:48:16;95195.38;;;1.84;83.34
6435;BME280;3250;42.694;23.278;2023-03-18T00:50:42;95194.69;;;1.82;83.28
6435;BME280;3250;42.694;23.278;2023-03-18T00:53:09;95194.06;;;1.80;83.18
6435;BME280;3250;42.694;23.278;2023-03-18T00:55:34;95187.91;;;1.81;82.89
6435;BME280;3250;42.694;23.278;2023-03-18T00:58:00;95182.03;;;1.79;83.48
6435;BME280;3250;42.694;23.278;2023-03-18T01:00:25;95185.22;;;1.73;83.20
6435;BME280;3250;42.694;23.278;2023-03-18T01:02:51;95178.56;;;1.71;83.26
6435;BME280;3250;42.694;23.278;2023-03-18T01:05:17;95179.88;;;1.75;83.15
6435;BME280;3250;42.694;23.278;2023-03-18T01:07:43;95181.00;;;1.72;82.83
6435;BME280;3250;42.694;23.278;2023-03-18T01:10:10;95145.44;;;1.47;82.82
6435;BME280;3250;42.694;23.278;2023-03-18T01:12:37;95173.66;;;1.68;83.12
6435;BME280;3250;42.694;23.278;2023-03-18T01:15:03;95153.13;;;1.57;83.38
6435;BME280;3250;42.694;23.278;2023-03-18T01:17:29;95173.31;;;1.63;83.57
6435;BME280;3250;42.694;23.278;2023-03-18T01:19:54;95162.78;;;1.64;83.79
6435;BME280;3250;42.694;23.278;2023-03-18T01:22:20;95179.44;;;1.62;83.36
6435;BME280;3250;42.694;23.278;2023-03-18T01:24:45;95163.50;;;1.57;83.68
6435;BME280;3250;42.694;23.278;2023-03-18T01:27:11;95170.47;;;1.56;83.42
6435;BME280;3250;42.694;23.278;2023-03-18T01:29:38;95171.59;;;1.54;83.69
6435;BME280;3250;42.694;23.278;2023-03-18T01:32:03;95169.13;;;1.52;83.80
6435;BME280;3250;42.694;23.278;2023-03-18T01:34:29;95169.44;;;1.49;84.46
6435;BME280;3250;42.694;23.278;2023-03-18T01:36:55;95157.28;;;1.49;83.71
6435;BME280;3250;42.694;23.278;2023-03-18T01:39:21;95163.66;;;1.55;84.29
6435;BME280;3250;42.694;23.278;2023-03-18T01:41:48;95164.31;;;1.57;83.93
6435;BME280;3250;42.694;23.278;2023-03-18T01:44:16;95146.00;;;1.41;83.20
6435;BME280;3250;42.694;23.278;2023-03-18T01:46:47;95163.13;;;1.51;83.83
6435;BME280;3250;42.694;23.278;2023-03-18T01:52:01;95164.63;;;1.54;84.12
6435;BME280;3250;42.694;23.278;2023-03-18T01:54:32;95153.56;;;1.52;83.48
6435;BME280;3250;42.694;23.278;2023-03-18T01:56:58;95163.00;;;1.53;83.06
6435;BME280;3250;42.694;23.278;2023-03-18T01:59:26;95156.47;;;1.49;83.41
6435;BME280;3250;42.694;23.278;2023-03-18T02:01:58;95151.19;;;1.41;84.20
6435;BME280;3250;42.694;23.278;2023-03-18T02:04:28;95147.56;;;1.34;84.10
6435;BME280;3250;42.694;23.278;2023-03-18T02:06:57;95146.31;;;1.38;83.83
6435;BME280;3250;42.694;23.278;2023-03-18T02:09:22;95155.88;;;1.37;83.92
6435;BME280;3250;42.694;23.278;2023-03-18T02:11:49;95147.41;;;1.35;84.07
6435;BME280;3250;42.694;23.278;2023-03-18T02:14:19;95142.53;;;1.32;84.33
6435;BME280;3250;42.694;23.278;2023-03-18T02:16:54;95135.13;;;1.37;84.45
6435;BME280;3250;42.694;23.278;2023-03-18T02:19:27;95148.91;;;1.38;83.93
6435;BME280;3250;42.694;23.278;2023-03-18T02:22:15;95129.19;;;1.27;84.22
6435;BME280;3250;42.694;23.278;2023-03-18T02:24:58;95148.59;;;1.41;84.50
6435;BME280;3250;42.694;23.278;2023-03-18T02:27:28;95144.56;;;1.38;84.10
6435;BME280;3250;42.694;23.278;2023-03-18T02:30:00;95149.72;;;1.38;83.85
6435;BME280;3250;42.694;23.278;2023-03-18T02:32:28;95144.00;;;1.35;83.82
6435;BME280;3250;42.694;23.278;2023-03-18T02:34:55;95139.13;;;1.32;84.50
6435;BME280;3250;42.694;23.278;2023-03-18T02:37:23;95145.25;;;1.31;84.19
6435;BME280;3250;42.694;23.278;2023-03-18T02:39:48;95138.88;;;1.25;84.43
6435;BME280;3250;42.694;23.278;2023-03-18T02:42:14;95144.63;;;1.29;84.67
6435;BME280;3250;42.694;23.278;2023-03-18T02:44:42;95146.06;;;1.31;84.83
6435;BME280;3250;42.694;23.278;2023-03-18T02:47:14;95139.13;;;1.32;84.30
6435;BME280;3250;42.694;23.278;2023-03-18T02:49:43;95145.72;;;1.26;84.11
6435;BME280;3250;42.694;23.278;2023-03-18T02:52:08;95141.47;;;1.25;83.90
6435;BME280;3250;42.694;23.278;2023-03-18T02:54:34;95141.94;;;1.21;84.30
6435;BME280;3250;42.694;23.278;2023-03-18T02:56:59;95147.25;;;1.19;83.86
6435;BME280;3250;42.694;23.278;2023-03-18T02:59:26;95137.72;;;1.20;83.79
6435;BME280;3250;42.694;23.278;2023-03-18T03:01:52;95143.84;;;1.19;83.98
6435;BME280;3250;42.694;23.278;2023-03-18T03:04:20;95136.50;;;1.14;83.69
6435;BME280;3250;42.694;23.278;2023-03-18T03:06:47;95122.28;;;1.00;84.14
6435;BME280;3250;42.694;23.278;2023-03-18T03:09:15;95137.78;;;1.10;83.97
6435;BME280;3250;42.694;23.278;2023-03-18T03:11:42;95142.41;;;1.06;84.36
6435;BME280;3250;42.694;23.278;2023-03-18T03:14:08;95131.28;;;0.96;84.01
6435;BME280;3250;42.694;23.278;2023-03-18T03:16:35;95143.50;;;1.04;84.06
6435;BME280;3250;42.694;23.278;2023-03-18T03:19:01;95138.41;;;0.94;84.18
6435;BME280;3250;42.694;23.278;2023-03-18T03:21:26;95146.84;;;0.96;84.04
6435;BME280;3250;42.694;23.278;2023-03-18T03:23:52;95128.00;;;0.77;84.87
6435;BME280;3250;42.694;23.278;2023-03-18T03:26:19;95153.16;;;0.94;84.24
6435;BME280;3250;42.694;23.278;2023-03-18T03:28:45;95138.31;;;0.86;84.53
6435;BME280;3250;42.694;23.278;2023-03-18T03:31:10;95161.88;;;0.93;84.88
6435;BME280;3250;42.694;23.278;2023-03-18T03:33:38;95157.50;;;0.93;84.92
6435;BME280;3250;42.694;23.278;2023-03-18T03:36:07;95155.16;;;1.00;85.46
6435;BME280;3250;42.694;23.278;2023-03-18T03:38:33;95160.47;;;0.98;84.63
6435;BME280;3250;42.694;23.278;2023-03-18T03:40:59;95157.06;;;0.98;84.92
6435;BME280;3250;42.694;23.278;2023-03-18T03:43:24;95153.38;;;1.00;85.22
6435;BME280;3250;42.694;23.278;2023-03-18T03:45:50;95163.75;;;1.00;84.49
6435;BME280;3250;42.694;23.278;2023-03-18T03:48:15;95157.19;;;0.96;84.12
6435;BME280;3250;42.694;23.278;2023-03-18T03:50:40;95167.97;;;1.01;84.98
6435;BME280;3250;42.694;23.278;2023-03-18T03:53:06;95165.50;;;1.00;85.09
6435;BME280;3250;42.694;23.278;2023-03-18T03:55:32;95166.84;;;1.04;84.21
6435;BME280;3250;42.694;23.278;2023-03-18T03:57:58;95162.25;;;0.98;84.01
6435;BME280;3250;42.694;23.278;2023-03-18T04:00:23;95167.88;;;0.93;83.78
6435;BME280;3250;42.694;23.278;2023-03-18T04:02:50;95165.94;;;0.95;83.79
6435;BME280;3250;42.694;23.278;2023-03-18T04:05:18;95168.38;;;0.97;83.66
6435;BME280;3250;42.694;23.278;2023-03-18T04:07:44;95173.72;;;0.95;83.92
6435;BME280;3250;42.694;23.278;2023-03-18T04:10:12;95170.34;;;0.95;83.92
6435;BME280;3250;42.694;23.278;2023-03-18T04:12:39;95177.69;;;0.90;83.81
6435;BME280;3250;42.694;23.278;2023-03-18T04:15:06;95172.38;;;0.91;83.81
6435;BME280;3250;42.694;23.278;2023-03-18T04:17:32;95169.78;;;0.91;84.14
6435;BME280;3250;42.694;23.278;2023-03-18T04:19:59;95182.06;;;0.89;83.81
6435;BME280;3250;42.694;23.278;2023-03-18T04:22:24;95190.78;;;0.88;83.64
6435;BME280;3250;42.694;23.278;2023-03-18T04:24:49;95191.47;;;0.90;84.31
6435;BME280;3250;42.694;23.278;2023-03-18T04:27:15;95193.53;;;0.87;83.54
6435;BME280;3250;42.694;23.278;2023-03-18T04:29:42;95190.00;;;0.78;83.44
6435;BME280;3250;42.694;23.278;2023-03-18T04:32:08;95195.88;;;0.80;83.16
6435;BME280;3250;42.694;23.278;2023-03-18T04:34:34;95205.41;;;0.80;84.31
6435;BME280;3250;42.694;23.278;2023-03-18T04:36:59;95208.81;;;0.80;83.99
6435;BME280;3250;42.694;23.278;2023-03-18T04:39:25;95211.56;;;0.79;84.16
6435;BME280;3250;42.694;23.278;2023-03-18T04:41:50;95207.88;;;0.81;83.78
6435;BME280;3250;42.694;23.278;2023-03-18T04:44:16;95214.69;;;0.82;82.88
6435;BME280;3250;42.694;23.278;2023-03-18T04:46:41;95209.78;;;0.79;83.81
6435;BME280;3250;42.694;23.278;2023-03-18T04:49:08;95213.06;;;0.81;83.31
6435;BME280;3250;42.694;23.278;2023-03-18T04:51:33;95217.28;;;0.82;83.37
6435;BME280;3250;42.694;23.278;2023-03-18T04:53:59;95216.66;;;0.98;83.66
6435;BME280;3250;42.694;23.278;2023-03-18T04:56:24;95211.16;;;1.38;83.28
6435;BME280;3250;42.694;23.278;2023-03-18T04:58:49;95211.31;;;2.07;81.93
6435;BME280;3250;42.694;23.278;2023-03-18T05:01:15;95216.72;;;2.57;78.84
6435;BME280;3250;42.694;23.278;2023-03-18T05:03:41;95226.69;;;3.04;76.22
6435;BME280;3250;42.694;23.278;2023-03-18T05:06:07;95225.97;;;3.78;74.60
6435;BME280;3250;42.694;23.278;2023-03-18T05:08:33;95229.28;;;4.45;71.45
6435;BME280;3250;42.694;23.278;2023-03-18T05:10:59;95236.19;;;5.09;69.41
6435;BME280;3250;42.694;23.278;2023-03-18T05:13:24;95234.03;;;5.91;66.94
6435;BME280;3250;42.694;23.278;2023-03-18T05:15:50;95233.56;;;7.08;63.93
6435;BME280;3250;42.694;23.278;2023-03-18T05:18:15;95240.31;;;8.33;60.30
6435;BME280;3250;42.694;23.278;2023-03-18T05:20:41;95238.97;;;9.49;56.80
6435;BME280;3250;42.694;23.278;2023-03-18T05:23:07;95227.00;;;10.54;53.27
6435;BME280;3250;42.694;23.278;2023-03-18T05:25:32;95227.97;;;11.39;50.83
6435;BME280;3250;42.694;23.278;2023-03-18T05:27:59;95228.50;;;12.12;48.87
6435;BME280;3250;42.694;23.278;2023-03-18T05:30:24;95229.75;;;12.79;46.66
6435;BME280;3250;42.694;23.278;2023-03-18T05:32:49;95218.00;;;13.43;44.92
6435;BME280;3250;42.694;23.278;2023-03-18T05:35:15;95215.75;;;13.83;43.87
6435;BME280;3250;42.694;23.278;2023-03-18T05:37:41;95198.91;;;14.37;43.06
6435;BME280;3250;42.694;23.278;2023-03-18T05:40:09;95218.75;;;14.88;41.75
6435;BME280;3250;42.694;23.278;2023-03-18T05:42:38;95203.25;;;15.38;40.30
6435;BME280;3250;42.694;23.278;2023-03-18T05:45:05;95221.75;;;16.08;39.28
6435;BME280;3250;42.694;23.278;2023-03-18T05:47:31;95208.94;;;16.78;38.23
6435;BME280;3250;42.694;23.278;2023-03-18T05:49:57;95216.13;;;17.45;36.87
6435;BME280;3250;42.694;23.278;2023-03-18T05:52:22;95235.13;;;18.30;35.67
6435;BME280;3250;42.694;23.278;2023-03-18T05:54:48;95228.44;;;18.76;33.76
6435;BME280;3250;42.694;23.278;2023-03-18T05:57:14;95230.34;;;19.13;31.97
6435;BME280;3250;42.694;23.278;2023-03-18T05:59:40;95224.44;;;19.43;31.23
6435;BME280;3250;42.694;23.278;2023-03-18T06:02:05;95241.13;;;20.02;29.63
6435;BME280;3250;42.694;23.278;2023-03-18T06:04:31;95220.72;;;20.43;29.01
6435;BME280;3250;42.694;23.278;2023-03-18T06:06:56;95247.88;;;20.92;27.68
6435;BME280;3250;42.694;23.278;2023-03-18T06:09:22;95240.84;;;20.76;27.04
6435;BME280;3250;42.694;23.278;2023-03-18T06:11:50;95252.44;;;21.07;27.44
6435;BME280;3250;42.694;23.278;2023-03-18T06:14:16;95247.09;;;21.48;26.48
6435;BME280;3250;42.694;23.278;2023-03-18T06:16:41;95224.03;;;21.11;26.53
6435;BME280;3250;42.694;23.278;2023-03-18T06:19:07;95253.59;;;19.86;27.94
6435;BME280;3250;42.694;23.278;2023-03-18T06:21:35;95220.00;;;18.14;29.81
6435;BME280;3250;42.694;23.278;2023-03-18T06:24:00;95243.88;;;16.98;31.69
6435;BME280;3250;42.694;23.278;2023-03-18T06:26:26;95226.09;;;15.74;33.84
6435;BME280;3250;42.694;23.278;2023-03-18T06:28:52;95239.19;;;14.99;35.31
6435;BME280;3250;42.694;23.278;2023-03-18T06:31:18;95232.69;;;14.71;36.56
6435;BME280;3250;42.694;23.278;2023-03-18T06:33:43;95230.94;;;15.65;35.60
6435;BME280;3250;42.694;23.278;2023-03-18T06:36:10;95239.44;;;16.87;33.38
6435;BME280;3250;42.694;23.278;2023-03-18T06:38:36;95217.09;;;17.94;31.98
6435;BME280;3250;42.694;23.278;2023-03-18T06:41:02;95223.19;;;18.87;30.15
6435;BME280;3250;42.694;23.278;2023-03-18T06:43:28;95214.03;;;19.83;28.24
6435;BME280;3250;42.694;23.278;2023-03-18T06:45:54;95198.03;;;19.88;28.66
6435;BME280;3250;42.694;23.278;2023-03-18T06:48:19;95215.09;;;20.45;28.10
6435;BME280;3250;42.694;23.278;2023-03-18T06:50:45;95217.06;;;21.05;27.66
6435;BME280;3250;42.694;23.278;2023-03-18T06:53:10;95218.38;;;21.78;26.59
6435;BME280;3250;42.694;23.278;2023-03-18T06:55:37;95223.53;;;21.50;27.15
6435;BME280;3250;42.694;23.278;2023-03-18T06:58:04;95224.88;;;21.52;26.87
6435;BME280;3250;42.694;23.278;2023-03-18T07:00:30;95214.41;;;21.00;27.20
6435;BME280;3250;42.694;23.278;2023-03-18T07:02:56;95221.81;;;20.47;28.43
6435;BME280;3250;42.694;23.278;2023-03-18T07:05:21;95211.66;;;19.87;30.16
6435;BME280;3250;42.694;23.278;2023-03-18T07:07:48;95217.91;;;19.61;30.42
6435;BME280;3250;42.694;23.278;2023-03-18T07:10:19;95218.84;;;19.12;31.32
6435;BME280;3250;42.694;23.278;2023-03-18T07:12:45;95217.34;;;18.90;31.49
6435;BME280;3250;42.694;23.278;2023-03-18T07:15:12;95216.63;;;18.45;31.90
6435;BME280;3250;42.694;23.278;2023-03-18T07:17:38;95217.78;;;18.06;32.86
6435;BME280;3250;42.694;23.278;2023-03-18T07:20:03;95216.28;;;18.15;31.97
6435;BME280;3250;42.694;23.278;2023-03-18T07:22:29;95214.13;;;17.35;33.17
6435;BME280;3250;42.694;23.278;2023-03-18T07:24:55;95223.22;;;16.72;35.25
6435;BME280;3250;42.694;23.278;2023-03-18T07:27:20;95202.69;;;16.56;34.88
6435;BME280;3250;42.694;23.278;2023-03-18T07:29:47;95203.47;;;16.40;36.59
6435;BME280;3250;42.694;23.278;2023-03-18T07:32:13;95214.91;;;16.12;36.61
6435;BME280;3250;42.694;23.278;2023-03-18T07:34:39;95214.84;;;15.95;37.71
6435;BME280;3250;42.694;23.278;2023-03-18T07:37:04;95218.69;;;15.76;38.16
6435;BME280;3250;42.694;23.278;2023-03-18T07:39:30;95216.88;;;15.65;38.37
6435;BME280;3250;42.694;23.278;2023-03-18T07:41:55;95222.38;;;15.05;37.47
6435;BME280;3250;42.694;23.278;2023-03-18T07:44:21;95215.38;;;14.57;39.21
6435;BME280;3250;42.694;23.278;2023-03-18T07:46:47;95220.63;;;14.46;38.92
6435;BME280;3250;42.694;23.278;2023-03-18T07:49:13;95224.25;;;13.85;39.84
6435;BME280;3250;42.694;23.278;2023-03-18T07:51:38;95209.69;;;13.76;42.19
6435;BME280;3250;42.694;23.278;2023-03-18T07:54:03;95189.72;;;13.80;42.44
6435;BME280;3250;42.694;23.278;2023-03-18T07:56:29;95212.28;;;14.12;42.27
6435;BME280;3250;42.694;23.278;2023-03-18T07:58:55;95214.94;;;14.12;40.62
6435;BME280;3250;42.694;23.278;2023-03-18T08:01:21;95218.34;;;12.47;41.94
6435;BME280;3250;42.694;23.278;2023-03-18T08:03:46;95214.78;;;11.39;46.01
6435;BME280;3250;42.694;23.278;2023-03-18T08:06:13;95191.91;;;11.20;48.15
6435;BME280;3250;42.694;23.278;2023-03-18T08:08:40;95211.13;;;11.98;48.23
6435;BME280;3250;42.694;23.278;2023-03-18T08:11:05;95208.28;;;11.99;45.06
6435;BME280;3250;42.694;23.278;2023-03-18T08:13:32;95212.56;;;12.00;44.10
6435;BME280;3250;42.694;23.278;2023-03-18T08:15:58;95180.41;;;11.65;45.37
6435;BME280;3250;42.694;23.278;2023-03-18T08:18:23;95189.91;;;11.73;46.29
6435;BME280;3250;42.694;23.278;2023-03-18T08:20:49;95202.16;;;12.05;44.61
6435;BME280;3250;42.694;23.278;2023-03-18T08:23:14;95211.06;;;12.74;45.82
6435;BME280;3250;42.694;23.278;2023-03-18T08:25:40;95214.41;;;13.37;44.49
6435;BME280;3250;42.694;23.278;2023-03-18T08:28:06;95214.75;;;13.59;42.60
6435;BME280;3250;42.694;23.278;2023-03-18T08:30:33;95222.56;;;13.72;41.18
6435;BME280;3250;42.694;23.278;2023-03-18T08:32:58;95205.97;;;13.83;41.44
6435;BME280;3250;42.694;23.278;2023-03-18T08:35:24;95213.91;;;13.47;40.91
6435;BME280;3250;42.694;23.278;2023-03-18T08:37:50;95202.00;;;13.38;41.33
6435;BME280;3250;42.694;23.278;2023-03-18T08:40:18;95199.56;;;13.73;41.64
6435;BME280;3250;42.694;23.278;2023-03-18T08:42:44;95167.00;;;13.72;40.19
6435;BME280;3250;42.694;23.278;2023-03-18T08:45:11;95212.84;;;13.84;41.22
6435;BME280;3250;42.694;23.278;2023-03-18T08:47:37;95212.41;;;13.69;39.06
6435;BME280;3250;42.694;23.278;2023-03-18T08:50:04;95203.38;;;13.58;39.47
6435;BME280;3250;42.694;23.278;2023-03-18T08:52:30;95206.22;;;12.96;41.33
6435;BME280;3250;42.694;23.278;2023-03-18T08:54:56;95212.88;;;12.98;40.88
6435;BME280;3250;42.694;23.278;2023-03-18T08:57:22;95209.06;;;12.38;41.73
6435;BME280;3250;42.694;23.278;2023-03-18T08:59:47;95213.97;;;11.96;41.82
6435;BME280;3250;42.694;23.278;2023-03-18T09:02:14;95211.38;;;11.90;44.55
6435;BME280;3250;42.694;23.278;2023-03-18T09:04:42;95213.53;;;12.37;44.37
6435;BME280;3250;42.694;23.278;2023-03-18T09:07:08;95208.66;;;12.97;43.12
6435;BME280;3250;42.694;23.278;2023-03-18T09:09:33;95197.19;;;13.28;42.11
6435;BME280;3250;42.694;23.278;2023-03-18T09:11:59;95215.41;;;13.18;40.27
6435;BME280;3250;42.694;23.278;2023-03-18T09:14:25;95207.31;;;12.88;43.59
6435;BME280;3250;42.694;23.278;2023-03-18T09:16:51;95177.44;;;12.88;42.70
6435;BME280;3250;42.694;23.278;2023-03-18T09:19:18;95205.22;;;13.40;39.54
6435;BME280;3250;42.694;23.278;2023-03-18T09:21:43;95199.31;;;13.19;39.23
6435;BME280;3250;42.694;23.278;2023-03-18T09:24:10;95200.97;;;12.89;39.08
6435;BME280;3250;42.694;23.278;2023-03-18T09:26:35;95222.72;;;13.16;39.14
6435;BME280;3250;42.694;23.278;2023-03-18T09:29:02;95209.00;;;13.01;41.29
6435;BME280;3250;42.694;23.278;2023-03-18T09:31:28;95211.38;;;13.52;39.88
6435;BME280;3250;42.694;23.278;2023-03-18T09:33:54;95193.59;;;13.41;38.29
6435;BME280;3250;42.694;23.278;2023-03-18T09:36:20;95177.00;;;13.70;37.33
6435;BME280;3250;42.694;23.278;2023-03-18T09:38:46;95205.28;;;13.51;36.46
6435;BME280;3250;42.694;23.278;2023-03-18T09:41:24;95217.13;;;13.31;36.51
6435;BME280;3250;42.694;23.278;2023-03-18T09:52:10;95207.13;;;11.89;39.88
6435;BME280;3250;42.694;23.278;2023-03-18T09:54:55;95206.88;;;11.32;41.10
6435;BME280;3250;42.694;23.278;2023-03-18T09:57:29;95197.31;;;11.45;40.75
6435;BME280;3250;42.694;23.278;2023-03-18T10:00:17;95197.66;;;11.61;41.50
6435;BME280;3250;42.694;23.278;2023-03-18T10:05:22;95198.78;;;11.92;42.27
6435;BME280;3250;42.694;23.278;2023-03-18T10:07:53;95200.59;;;11.98;38.64
6435;BME280;3250;42.694;23.278;2023-03-18T10:10:27;95175.66;;;11.29;39.12
6435;BME280;3250;42.694;23.278;2023-03-18T10:13:27;95191.72;;;11.15;39.66
6435;BME280;3250;42.694;23.278;2023-03-18T10:15:56;95193.91;;;11.31;40.19
6435;BME280;3250;42.694;23.278;2023-03-18T10:18:32;95200.22;;;11.17;39.17
6435;BME280;3250;42.694;23.278;2023-03-18T10:21:23;95204.28;;;11.00;38.69
6435;BME280;3250;42.694;23.278;2023-03-18T10:32:58;95179.22;;;10.38;39.22
6435;BME280;3250;42.694;23.278;2023-03-18T10:35:48;95191.16;;;10.53;39.55
6435;BME280;3250;42.694;23.278;2023-03-18T10:38:29;95187.72;;;10.79;40.18
6435;BME280;3250;42.694;23.278;2023-03-18T10:40:59;95180.59;;;10.73;37.55
6435;BME280;3250;42.694;23.278;2023-03-18T10:43:29;95188.31;;;10.68;36.47
6435;BME280;3250;42.694;23.278;2023-03-18T10:46:01;95196.03;;;10.63;36.09
6435;BME280;3250;42.694;23.278;2023-03-18T10:48:32;95182.84;;;10.56;34.46
6435;BME280;3250;42.694;23.278;2023-03-18T10:53:39;95169.81;;;10.02;39.54
6435;BME280;3250;42.694;23.278;2023-03-18T10:56:08;95181.00;;;10.31;37.69
6435;BME280;3250;42.694;23.278;2023-03-18T10:58:36;95172.66;;;10.07;40.65
6435;BME280;3250;42.694;23.278;2023-03-18T11:01:02;95154.03;;;10.15;39.71
6435;BME280;3250;42.694;23.278;2023-03-18T11:03:49;95175.53;;;10.65;37.46
6435;BME280;3250;42.694;23.278;2023-03-18T11:06:27;95176.78;;;10.89;41.59
6435;BME280;3250;42.694;23.278;2023-03-18T11:09:05;95169.06;;;10.87;42.44
6435;BME280;3250;42.694;23.278;2023-03-18T11:11:34;95183.25;;;10.67;41.30
6435;BME280;3250;42.694;23.278;2023-03-18T11:14:04;95178.78;;;10.41;42.03
6435;BME280;3250;42.694;23.278;2023-03-18T11:16:36;95180.72;;;10.12;41.14
6435;BME280;3250;42.694;23.278;2023-03-18T11:22:23;95182.25;;;9.67;41.64
6435;BME280;3250;42.694;23.278;2023-03-18T11:27:51;95169.59;;;9.43;41.14
6435;BME280;3250;42.694;23.278;2023-03-18T11:30:28;95165.16;;;9.43;41.92
6435;BME280;3250;42.694;23.278;2023-03-18T11:33:20;95165.88;;;9.72;41.43
6435;BME280;3250;42.694;23.278;2023-03-18T11:38:25;95163.94;;;10.00;42.06
6435;BME280;3250;42.694;23.278;2023-03-18T11:43:29;95159.53;;;10.47;38.57
6435;BME280;3250;42.694;23.278;2023-03-18T11:45:55;95163.19;;;10.59;36.52
6435;BME280;3250;42.694;23.278;2023-03-18T11:51:07;95160.75;;;10.31;37.32
6435;BME280;3250;42.694;23.278;2023-03-18T11:56:22;95162.97;;;10.21;36.91
6435;BME280;3250;42.694;23.278;2023-03-18T12:01:45;95154.41;;;9.99;36.87
6435;BME280;3250;42.694;23.278;2023-03-18T12:04:41;95159.69;;;10.06;37.81
6435;BME280;3250;42.694;23.278;2023-03-18T12:15:39;95152.41;;;10.14;38.59
6435;BME280;3250;42.694;23.278;2023-03-18T12:20:54;95161.41;;;10.46;38.81
6435;BME280;3250;42.694;23.278;2023-03-18T12:23:30;95157.13;;;10.32;37.85
6435;BME280;3250;42.694;23.278;2023-03-18T12:31:44;95139.94;;;10.43;37.44
6435;BME280;3250;42.694;23.278;2023-03-18T12:34:49;95156.13;;;10.27;36.62
6435;BME280;3250;42.694;23.278;2023-03-18T12:37:22;95147.56;;;10.11;37.60
6435;BME280;3250;42.694;23.278;2023-03-18T12:42:31;95141.09;;;10.14;37.35
6435;BME280;3250;42.694;23.278;2023-03-18T12:45:09;95161.97;;;10.22;37.84
6435;BME280;3250;42.694;23.278;2023-03-18T12:47:47;95140.72;;;10.24;38.45
6435;BME280;3250;42.694;23.278;2023-03-18T12:50:20;95127.59;;;10.37;37.85
6435;BME280;3250;42.694;23.278;2023-03-18T12:52:53;95149.84;;;10.54;38.04
6435;BME280;3250;42.694;23.278;2023-03-18T12:55:29;95149.22;;;10.58;36.29
6435;BME280;3250;42.694;23.278;2023-03-18T12:57:58;95147.00;;;10.49;36.07
6435;BME280;3250;42.694;23.278;2023-03-18T13:00:32;95153.28;;;10.48;36.72
6435;BME280;3250;42.694;23.278;2023-03-18T13:03:26;95145.59;;;10.33;36.18
6435;BME280;3250;42.694;23.278;2023-03-18T13:16:42;95142.16;;;10.52;37.91
6435;BME280;3250;42.694;23.278;2023-03-18T13:19:08;95146.00;;;10.70;36.65
6435;BME280;3250;42.694;23.278;2023-03-18T13:21:40;95144.56;;;10.80;36.80
6435;BME280;3250;42.694;23.278;2023-03-18T13:29:55;95148.75;;;11.08;35.61
6435;BME280;3250;42.694;23.278;2023-03-18T13:32:43;95151.59;;;11.00;34.73
6435;BME280;3250;42.694;23.278;2023-03-18T13:42:56;95143.16;;;10.71;36.00
6435;BME280;3250;42.694;23.278;2023-03-18T13:45:38;95086.91;;;10.46;35.42
6435;BME280;3250;42.694;23.278;2023-03-18T13:48:08;95135.84;;;10.73;35.02
6435;BME280;3250;42.694;23.278;2023-03-18T13:50:37;95134.06;;;10.61;35.28
6435;BME280;3250;42.694;23.278;2023-03-18T13:53:15;95122.31;;;10.50;35.87
6435;BME280;3250;42.694;23.278;2023-03-18T13:55:51;95115.03;;;10.45;36.77
6435;BME280;3250;42.694;23.278;2023-03-18T13:58:44;95134.88;;;10.35;35.37
6435;BME280;3250;42.694;23.278;2023-03-18T14:03:52;95135.97;;;9.86;36.06
6435;BME280;3250;42.694;23.278;2023-03-18T14:06:23;95123.25;;;9.83;36.21
6435;BME280;3250;42.694;23.278;2023-03-18T14:09:22;95130.31;;;9.76;37.27
6435;BME280;3250;42.694;23.278;2023-03-18T14:12:36;95121.44;;;9.83;36.14
6435;BME280;3250;42.694;23.278;2023-03-18T14:17:41;95111.91;;;9.76;36.36
6435;BME280;3250;42.694;23.278;2023-03-18T14:20:23;95135.78;;;9.81;37.09
6435;BME280;3250;42.694;23.278;2023-03-18T14:27:51;95121.84;;;10.00;36.13
6435;BME280;3250;42.694;23.278;2023-03-18T14:33:29;95141.84;;;9.95;36.46
6435;BME280;3250;42.694;23.278;2023-03-18T14:36:04;95129.31;;;9.83;35.97
6435;BME280;3250;42.694;23.278;2023-03-18T14:38:48;95129.31;;;9.83;36.05
6435;BME280;3250;42.694;23.278;2023-03-18T14:41:23;95116.72;;;9.66;35.76
6435;BME280;3250;42.694;23.278;2023-03-18T14:43:52;95124.88;;;9.84;35.54
6435;BME280;3250;42.694;23.278;2023-03-18T14:46:22;95127.69;;;9.89;36.66
6435;BME280;3250;42.694;23.278;2023-03-18T14:48:54;95092.50;;;9.77;34.94
6435;BME280;3250;42.694;23.278;2023-03-18T14:51:21;95127.31;;;10.05;35.53
6435;BME280;3250;42.694;23.278;2023-03-18T14:54:05;95119.22;;;10.00;35.98
6435;BME280;3250;42.694;23.278;2023-03-18T14:56:38;95125.31;;;10.07;34.84
6435;BME280;3250;42.694;23.278;2023-03-18T14:59:05;95122.47;;;10.02;35.14
6435;BME280;3250;42.694;23.278;2023-03-18T15:01:37;95141.13;;;10.20;35.11
6435;BME280;3250;42.694;23.278;2023-03-18T15:04:05;95115.22;;;10.17;34.69
6435;BME280;3250;42.694;23.278;2023-03-18T15:06:31;95135.47;;;10.24;35.21